VOI1326 KSAT-MMMY
Flight info
| Callsign | VOI1326 |
|---|---|
| Flight time | N/A |
| Altitude | 34000 |
| Route | TJANO2 KAHAN LRD NOTAL NOTA1A |
| Aircraft | A320/M-SDE3FGHIRWY/LB1 |
Departure
| Time | 2026-04-25 20:13 |
|---|---|
| Airport | San Antonio International Airport (KSAT) |
Arrival
| Time | N/A |
|---|---|
| Airport | Monterrey International Airport (MMMY) |
| Time | Latitude | Longitude | Altitude | Speed | Heading |
|---|---|---|---|---|---|
| 2026-04-25 19:49 | 29.52697 | -98.46980 | 794 ft | 0 kts | 312° |
| 2026-04-25 19:49 | 29.52696 | -98.46980 | 794 ft | 0 kts | 312° |
| 2026-04-25 19:49 | 29.52697 | -98.46980 | 794 ft | 0 kts | 312° |
| 2026-04-25 19:49 | 29.52696 | -98.46980 | 794 ft | 0 kts | 312° |
| 2026-04-25 20:03 | 29.52688 | -98.46969 | 802 ft | 3 kts | 312° |
| 2026-04-25 20:04 | 29.52676 | -98.46954 | 803 ft | 2 kts | 348° |
| 2026-04-25 20:04 | 29.52663 | -98.46954 | 770 ft | 0 kts | 38° |
| 2026-04-25 20:06 | 29.52667 | -98.46951 | 773 ft | 2 kts | 38° |
| 2026-04-25 20:06 | 29.52677 | -98.46940 | 780 ft | 2 kts | 45° |
| 2026-04-25 20:07 | 29.52690 | -98.46924 | 778 ft | 3 kts | 47° |
| 2026-04-25 20:07 | 29.52708 | -98.46901 | 787 ft | 4 kts | 49° |
| 2026-04-25 20:07 | 29.52718 | -98.46862 | 787 ft | 6 kts | 96° |
| 2026-04-25 20:07 | 29.52705 | -98.46809 | 787 ft | 8 kts | 74° |
| 2026-04-25 20:08 | 29.52757 | -98.46793 | 786 ft | 10 kts | 328° |
| 2026-04-25 20:08 | 29.52811 | -98.46859 | 785 ft | 13 kts | 312° |
| 2026-04-25 20:08 | 29.52874 | -98.46941 | 787 ft | 14 kts | 311° |
| 2026-04-25 20:08 | 29.52946 | -98.47033 | 790 ft | 16 kts | 311° |
| 2026-04-25 20:09 | 29.53027 | -98.47138 | 791 ft | 19 kts | 311° |
| 2026-04-25 20:09 | 29.53115 | -98.47253 | 795 ft | 19 kts | 312° |
| 2026-04-25 20:09 | 29.53210 | -98.47374 | 795 ft | 22 kts | 311° |
| 2026-04-25 20:09 | 29.53320 | -98.47515 | 797 ft | 24 kts | 311° |
| 2026-04-25 20:10 | 29.53437 | -98.47667 | 794 ft | 28 kts | 311° |
| 2026-04-25 20:10 | 29.53569 | -98.47835 | 797 ft | 29 kts | 312° |
| 2026-04-25 20:10 | 29.53694 | -98.47996 | 801 ft | 13 kts | 311° |
| 2026-04-25 20:10 | 29.53754 | -98.48074 | 804 ft | 13 kts | 313° |
| 2026-04-25 20:11 | 29.53825 | -98.48165 | 804 ft | 20 kts | 311° |
| 2026-04-25 20:11 | 29.53932 | -98.48301 | 807 ft | 24 kts | 313° |
| 2026-04-25 20:11 | 29.54049 | -98.48454 | 805 ft | 27 kts | 312° |
| 2026-04-25 20:11 | 29.54135 | -98.48565 | 805 ft | 9 kts | 311° |
| 2026-04-25 20:12 | 29.54189 | -98.48608 | 805 ft | 11 kts | 350° |
| 2026-04-25 20:12 | 29.54253 | -98.48564 | 805 ft | 7 kts | 43° |
| 2026-04-25 20:12 | 29.54247 | -98.48521 | 805 ft | 1 kts | 125° |
| 2026-04-25 20:13 | 29.54092 | -98.48321 | 805 ft | 72 kts | 132° |
| 2026-04-25 20:13 | 29.53614 | -98.47707 | 796 ft | 132 kts | 131° |
| 2026-04-25 20:13 | 29.52898 | -98.46785 | 873 ft | 171 kts | 133° |
| 2026-04-25 20:13 | 29.52107 | -98.45743 | 1533 ft | 172 kts | 134° |
| 2026-04-25 20:14 | 29.51326 | -98.44719 | 2335 ft | 169 kts | 134° |
| 2026-04-25 20:14 | 29.50524 | -98.43673 | 2919 ft | 184 kts | 134° |
| 2026-04-25 20:14 | 29.49602 | -98.42536 | 3314 ft | 206 kts | 142° |
| 2026-04-25 20:14 | 29.48232 | -98.41892 | 3724 ft | 227 kts | 176° |
| 2026-04-25 20:15 | 29.46603 | -98.41973 | 4396 ft | 239 kts | 186° |
| 2026-04-25 20:15 | 29.44940 | -98.42201 | 5297 ft | 242 kts | 187° |
| 2026-04-25 20:15 | 29.43222 | -98.42448 | 5925 ft | 259 kts | 187° |
| 2026-04-25 20:15 | 29.41385 | -98.42633 | 6630 ft | 270 kts | 184° |
| 2026-04-25 20:16 | 29.39478 | -98.42742 | 7396 ft | 277 kts | 183° |
| 2026-04-25 20:16 | 29.37535 | -98.42830 | 8218 ft | 282 kts | 184° |
| 2026-04-25 20:16 | 29.35550 | -98.42917 | 9008 ft | 288 kts | 186° |
| 2026-04-25 20:16 | 29.33611 | -98.43514 | 9750 ft | 292 kts | 209° |
| 2026-04-25 20:17 | 29.31898 | -98.44813 | 10262 ft | 305 kts | 218° |
| 2026-04-25 20:17 | 29.30116 | -98.46299 | 10494 ft | 328 kts | 218° |
| 2026-04-25 20:17 | 29.28239 | -98.47887 | 10947 ft | 340 kts | 218° |
| 2026-04-25 20:17 | 29.26322 | -98.49517 | 11635 ft | 345 kts | 218° |
| 2026-04-25 20:18 | 29.24412 | -98.51143 | 12363 ft | 347 kts | 218° |
| 2026-04-25 20:18 | 29.22464 | -98.52796 | 13128 ft | 349 kts | 218° |
| 2026-04-25 20:18 | 29.20475 | -98.54471 | 13884 ft | 351 kts | 219° |
| 2026-04-25 20:18 | 29.18527 | -98.56108 | 14541 ft | 354 kts | 219° |
| 2026-04-25 20:19 | 29.16536 | -98.57779 | 15192 ft | 357 kts | 219° |
| 2026-04-25 20:19 | 29.14522 | -98.59470 | 15848 ft | 360 kts | 220° |
| 2026-04-25 20:19 | 29.12497 | -98.61170 | 16493 ft | 363 kts | 220° |
| 2026-04-25 20:19 | 29.10450 | -98.62888 | 17125 ft | 366 kts | 220° |
| 2026-04-25 20:20 | 29.08388 | -98.64620 | 17771 ft | 369 kts | 220° |
| 2026-04-25 20:20 | 29.06309 | -98.66366 | 18362 ft | 373 kts | 221° |
| 2026-04-25 20:20 | 29.04207 | -98.68129 | 18926 ft | 376 kts | 221° |
| 2026-04-25 20:20 | 29.02086 | -98.69904 | 19494 ft | 379 kts | 221° |
| 2026-04-25 20:21 | 28.99952 | -98.71690 | 20050 ft | 382 kts | 221° |
| 2026-04-25 20:21 | 28.97794 | -98.73495 | 20615 ft | 385 kts | 221° |
| 2026-04-25 20:21 | 28.95624 | -98.75310 | 21141 ft | 389 kts | 221° |
| 2026-04-25 20:21 | 28.93429 | -98.77144 | 21660 ft | 392 kts | 221° |
| 2026-04-25 20:22 | 28.91216 | -98.78992 | 22168 ft | 395 kts | 221° |
| 2026-04-25 20:22 | 28.90468 | -98.79616 | 22341 ft | 396 kts | 221° |
| 2026-04-25 20:22 | 28.86740 | -98.82725 | 23196 ft | 402 kts | 221° |
| 2026-04-25 20:22 | 28.84477 | -98.84612 | 23647 ft | 405 kts | 222° |
| 2026-04-25 20:23 | 28.82190 | -98.86516 | 24098 ft | 408 kts | 221° |
| 2026-04-25 20:23 | 28.79752 | -98.88220 | 24537 ft | 414 kts | 216° |
| 2026-04-25 20:23 | 28.77248 | -98.89855 | 24988 ft | 416 kts | 216° |
| 2026-04-25 20:23 | 28.74726 | -98.91496 | 25429 ft | 418 kts | 216° |
| 2026-04-25 20:24 | 28.72193 | -98.93139 | 25861 ft | 420 kts | 216° |
| 2026-04-25 20:24 | 28.69643 | -98.94793 | 26281 ft | 422 kts | 216° |
| 2026-04-25 20:24 | 28.67084 | -98.96455 | 26707 ft | 424 kts | 217° |
| 2026-04-25 20:24 | 28.64512 | -98.98125 | 27113 ft | 427 kts | 217° |
| 2026-04-25 20:25 | 28.61926 | -98.99804 | 27553 ft | 429 kts | 217° |
| 2026-04-25 20:25 | 28.59335 | -99.01486 | 27991 ft | 431 kts | 217° |
| 2026-04-25 20:25 | 28.56727 | -99.03179 | 28416 ft | 433 kts | 217° |
| 2026-04-25 20:25 | 28.54102 | -99.04884 | 28839 ft | 435 kts | 217° |
| 2026-04-25 20:26 | 28.51475 | -99.06589 | 29251 ft | 437 kts | 217° |
| 2026-04-25 20:26 | 28.49720 | -99.07727 | 29521 ft | 438 kts | 217° |
| 2026-04-25 20:26 | 28.46199 | -99.10006 | 30032 ft | 441 kts | 217° |
| 2026-04-25 20:26 | 28.43528 | -99.11730 | 30514 ft | 440 kts | 217° |
| 2026-04-25 20:27 | 28.40872 | -99.13441 | 31017 ft | 438 kts | 217° |
| 2026-04-25 20:27 | 28.38230 | -99.15144 | 31513 ft | 436 kts | 217° |
| 2026-04-25 20:27 | 28.36446 | -99.16298 | 31854 ft | 435 kts | 217° |
| 2026-04-25 20:27 | 28.33819 | -99.17994 | 32339 ft | 434 kts | 217° |
| 2026-04-25 20:28 | 28.31195 | -99.19686 | 32843 ft | 433 kts | 217° |
| 2026-04-25 20:28 | 28.28487 | -99.21230 | 33338 ft | 440 kts | 210° |
| 2026-04-25 20:28 | 28.25583 | -99.22288 | 33721 ft | 450 kts | 201° |
| 2026-04-25 20:28 | 28.22496 | -99.22989 | 33809 ft | 453 kts | 199° |
| 2026-04-25 20:29 | 28.16301 | -99.24333 | 33804 ft | 453 kts | 199° |
| 2026-04-25 20:29 | 28.10111 | -99.25679 | 33804 ft | 453 kts | 199° |
| 2026-04-25 20:30 | 28.03927 | -99.27035 | 33787 ft | 453 kts | 199° |
| 2026-04-25 20:30 | 27.97735 | -99.28395 | 33809 ft | 453 kts | 199° |
| 2026-04-25 20:31 | 27.91537 | -99.29752 | 33809 ft | 453 kts | 199° |
| 2026-04-25 20:31 | 27.85344 | -99.31103 | 33807 ft | 453 kts | 199° |
| 2026-04-25 20:32 | 27.79148 | -99.32456 | 33802 ft | 453 kts | 199° |
| 2026-04-25 20:32 | 27.73007 | -99.33984 | 33788 ft | 450 kts | 202° |
| 2026-04-25 20:33 | 27.66987 | -99.35870 | 33800 ft | 448 kts | 204° |
| 2026-04-25 20:33 | 27.62007 | -99.37486 | 33796 ft | 449 kts | 204° |
| 2026-04-25 20:34 | 27.55001 | -99.39649 | 33799 ft | 450 kts | 202° |
| 2026-04-25 20:34 | 27.49027 | -99.41651 | 33783 ft | 441 kts | 211° |
| 2026-04-25 20:35 | 27.43911 | -99.45174 | 33788 ft | 427 kts | 225° |
| 2026-04-25 20:35 | 27.39198 | -99.49247 | 33776 ft | 427 kts | 225° |
| 2026-04-25 20:36 | 27.34486 | -99.53311 | 33773 ft | 427 kts | 225° |
| 2026-04-25 20:36 | 27.29771 | -99.57378 | 33763 ft | 427 kts | 225° |
| 2026-04-25 20:37 | 27.25053 | -99.61435 | 33763 ft | 427 kts | 224° |
| 2026-04-25 20:37 | 27.20332 | -99.65488 | 33763 ft | 427 kts | 224° |
| 2026-04-25 20:38 | 27.15608 | -99.69546 | 33756 ft | 427 kts | 224° |
| 2026-04-25 20:38 | 27.10880 | -99.73599 | 33756 ft | 428 kts | 224° |
| 2026-04-25 20:39 | 27.06146 | -99.77657 | 33756 ft | 428 kts | 224° |
| 2026-04-25 20:39 | 27.02209 | -99.81022 | 33755 ft | 428 kts | 224° |
| 2026-04-25 20:40 | 26.96703 | -99.85725 | 33748 ft | 428 kts | 224° |
| 2026-04-25 20:40 | 26.91935 | -99.89797 | 33621 ft | 426 kts | 224° |
| 2026-04-25 20:41 | 26.89608 | -99.91780 | 32873 ft | 427 kts | 224° |
| 2026-04-25 20:41 | 26.87235 | -99.93803 | 32049 ft | 429 kts | 224° |
| 2026-04-25 20:41 | 26.84832 | -99.95856 | 30837 ft | 440 kts | 224° |
| 2026-04-25 20:41 | 26.82400 | -99.97931 | 29681 ft | 438 kts | 224° |
| 2026-04-25 20:42 | 26.79990 | -99.99979 | 28274 ft | 434 kts | 223° |
| 2026-04-25 20:42 | 26.77610 | -100.01995 | 27524 ft | 418 kts | 223° |
| 2026-04-25 20:42 | 26.75348 | -100.03902 | 27029 ft | 398 kts | 224° |
| 2026-04-25 20:42 | 26.73150 | -100.05761 | 26478 ft | 394 kts | 224° |
| 2026-04-25 20:43 | 26.70955 | -100.07593 | 25822 ft | 396 kts | 220° |
| 2026-04-25 20:43 | 26.68438 | -100.08920 | 24822 ft | 407 kts | 202° |
| 2026-04-25 20:43 | 26.65649 | -100.09566 | 23834 ft | 410 kts | 197° |
| 2026-04-25 20:43 | 26.62847 | -100.10128 | 22791 ft | 408 kts | 196° |
| 2026-04-25 20:44 | 26.60051 | -100.10672 | 21682 ft | 406 kts | 195° |
| 2026-04-25 20:44 | 26.57275 | -100.11210 | 20617 ft | 403 kts | 195° |
| 2026-04-25 20:44 | 26.54534 | -100.11743 | 19604 ft | 398 kts | 195° |
| 2026-04-25 20:44 | 26.51816 | -100.12277 | 18633 ft | 393 kts | 194° |
| 2026-04-25 20:45 | 26.49139 | -100.12805 | 17644 ft | 388 kts | 194° |
| 2026-04-25 20:45 | 26.46514 | -100.13327 | 16772 ft | 378 kts | 194° |
| 2026-04-25 20:45 | 26.43987 | -100.13829 | 16244 ft | 360 kts | 194° |
| 2026-04-25 20:45 | 26.41575 | -100.14308 | 15731 ft | 344 kts | 194° |
| 2026-04-25 20:46 | 26.39260 | -100.14767 | 15240 ft | 332 kts | 194° |
| 2026-04-25 20:46 | 26.36991 | -100.15220 | 14750 ft | 331 kts | 194° |
| 2026-04-25 20:46 | 26.34761 | -100.15666 | 14268 ft | 329 kts | 194° |
| 2026-04-25 20:46 | 26.32545 | -100.16108 | 13790 ft | 318 kts | 194° |
| 2026-04-25 20:47 | 26.30396 | -100.16534 | 13287 ft | 309 kts | 193° |
| 2026-04-25 20:47 | 26.28313 | -100.16948 | 12816 ft | 299 kts | 193° |
| 2026-04-25 20:47 | 26.26299 | -100.17349 | 12383 ft | 290 kts | 193° |
| 2026-04-25 20:47 | 26.24343 | -100.17740 | 11957 ft | 282 kts | 193° |
| 2026-04-25 20:48 | 26.22437 | -100.18117 | 11534 ft | 275 kts | 192° |